Time;durP1;ratioP1;P1;durP2;ratioP2;P2;SDS_P1;SDS_P2;PMS_P1;PMS_P2;Temp;Humidity;BMP_temperature;BMP_pressure;BME280_temperature;BME280_humidity;BME280_pressure;Samples;Min_cycle;Max_cycle;Signal;HPM_P1;HPM_P2
2022/01/27 00:02:21;;;;;;;18.48;10.93;;;16.50;38.80;;;;;;4994871;28;20243;-73
2022/01/27 00:05:02;;;;;;;13.32;9.90;;;16.50;38.90;;;;;;4995324;28;20213;-73
2022/01/27 00:07:30;;;;;;;17.95;10.68;;;16.40;38.80;;;;;;4995201;28;20201;-71
2022/01/27 00:10:10;;;;;;;15.40;10.15;;;16.40;38.80;;;;;;4995179;28;20197;-71
2022/01/27 00:12:38;;;;;;;18.17;9.98;;;16.40;38.90;;;;;;5011385;28;20189;-69
2022/01/27 00:15:10;;;;;;;16.65;11.10;;;16.40;38.90;;;;;;4995001;28;20217;-72
2022/01/27 00:17:43;;;;;;;14.13;10.20;;;16.30;38.70;;;;;;4996373;28;20178;-69
2022/01/27 00:20:11;;;;;;;14.38;9.85;;;16.30;38.90;;;;;;4996037;28;20201;-71
2022/01/27 00:22:38;;;;;;;15.68;10.35;;;16.30;39.00;;;;;;4994617;28;20259;-70
2022/01/27 00:25:06;;;;;;;14.75;10.35;;;16.20;38.90;;;;;;4995935;28;20213;-73
2022/01/27 00:27:33;;;;;;;14.70;10.00;;;16.20;39.10;;;;;;4995063;28;20248;-73
2022/01/27 00:30:03;;;;;;;14.90;10.27;;;16.20;39.20;;;;;;4996304;28;20192;-71
2022/01/27 00:32:30;;;;;;;17.00;10.60;;;16.20;39.10;;;;;;4995028;28;20201;-69
2022/01/27 00:34:59;;;;;;;17.25;10.55;;;16.20;39.10;;;;;;4995258;28;20709;-71
2022/01/27 00:37:26;;;;;;;17.63;10.93;;;16.10;39.00;;;;;;4994834;28;20201;-73
2022/01/27 00:39:54;;;;;;;15.32;10.85;;;16.10;39.10;;;;;;4994807;28;20214;-73
2022/01/27 00:42:22;;;;;;;15.52;11.02;;;16.10;39.10;;;;;;4995331;28;20205;-69
2022/01/27 00:44:49;;;;;;;15.27;9.93;;;16.10;39.20;;;;;;4995343;28;20283;-71
2022/01/27 00:47:16;;;;;;;15.32;10.10;;;16.10;39.10;;;;;;4996890;28;20225;-73
2022/01/27 00:49:43;;;;;;;15.52;10.50;;;16.00;39.30;;;;;;4995881;28;20693;-71
2022/01/27 00:52:16;;;;;;;16.30;10.55;;;16.00;39.20;;;;;;5013171;28;20197;-70
2022/01/27 00:54:43;;;;;;;16.60;10.85;;;16.00;39.10;;;;;;4997366;28;20220;-70
2022/01/27 00:57:16;;;;;;;14.88;10.52;;;16.00;39.90;;;;;;4995471;28;20189;-72
2022/01/27 00:59:52;;;;;;;13.90;10.07;;;16.00;39.80;;;;;;4994390;28;20316;-70
2022/01/27 01:02:30;;;;;;;14.80;10.07;;;16.00;39.20;;;;;;4994402;28;20293;-73
2022/01/27 01:05:11;;;;;;;13.98;10.10;;;16.00;39.20;;;;;;4995567;28;20213;-71
2022/01/27 01:07:43;;;;;;;15.80;10.45;;;16.00;39.10;;;;;;4995502;28;20232;-69
2022/01/27 01:11:00;;;;;;;16.17;11.13;;;15.90;39.10;;;;;;4994682;28;20200;-71
2022/01/27 01:16:12;;;;;;;12.88;9.30;;;15.90;39.10;;;;;;4957660;28;20244;-71
2022/01/27 01:18:48;;;;;;;15.40;10.43;;;15.90;39.30;;;;;;4985663;28;20213;-69
2022/01/27 01:21:41;;;;;;;14.73;10.55;;;15.90;39.30;;;;;;4993637;28;20643;-73
2022/01/27 01:29:54;;;;;;;16.77;11.13;;;15.80;39.20;;;;;;4992721;28;20650;-71
2022/01/27 01:32:36;;;;;;;15.65;10.15;;;15.80;39.20;;;;;;5009968;28;20288;-69
2022/01/27 01:35:06;;;;;;;16.90;10.40;;;15.80;39.40;;;;;;4994527;28;20268;-69
2022/01/27 01:37:37;;;;;;;15.73;10.85;;;15.80;39.30;;;;;;5010014;28;20198;-69
2022/01/27 01:40:07;;;;;;;17.35;10.95;;;15.80;39.30;;;;;;4993634;28;20209;-69
2022/01/27 01:42:34;;;;;;;14.20;9.60;;;15.70;39.00;;;;;;4993693;28;20207;-70
2022/01/27 01:45:03;;;;;;;15.18;10.02;;;15.70;39.30;;;;;;4993536;28;20249;-73
2022/01/27 01:47:30;;;;;;;15.85;10.25;;;15.80;39.40;;;;;;4993553;28;20193;-73
2022/01/27 01:49:58;;;;;;;15.77;11.20;;;15.70;39.20;;;;;;4993219;28;20220;-72
2022/01/27 01:52:26;;;;;;;18.50;11.65;;;15.70;39.20;;;;;;4993355;28;20249;-69
2022/01/27 01:54:53;;;;;;;15.40;10.57;;;15.70;39.30;;;;;;4993178;28;20312;-72
2022/01/27 01:57:21;;;;;;;16.35;10.80;;;15.70;39.40;;;;;;4993082;28;20197;-72
2022/01/27 01:59:48;;;;;;;16.67;10.85;;;15.70;39.30;;;;;;4993288;28;20217;-71
2022/01/27 02:02:15;;;;;;;15.32;10.50;;;15.70;39.30;;;;;;4993397;28;20197;-70
2022/01/27 02:04:42;;;;;;;14.52;10.55;;;15.70;39.30;;;;;;4994033;28;20217;-73
2022/01/27 02:07:17;;;;;;;15.50;10.57;;;15.60;39.30;;;;;;4993450;28;20685;-72
2022/01/27 02:10:03;;;;;;;14.00;10.18;;;15.60;39.30;;;;;;4993883;28;20713;-73
2022/01/27 02:18:07;;;;;;;13.25;10.10;;;15.60;39.30;;;;;;4993449;28;20567;-71
2022/01/27 02:20:36;;;;;;;13.80;10.30;;;15.60;39.50;;;;;;5009247;28;20270;-73
2022/01/27 02:23:05;;;;;;;13.07;9.88;;;15.60;39.40;;;;;;4993125;28;20273;-72
2022/01/27 02:25:33;;;;;;;15.48;10.73;;;15.50;39.50;;;;;;4993419;28;20608;-73
2022/01/27 02:28:00;;;;;;;12.27;9.23;;;15.60;39.50;;;;;;4994536;28;20192;-71
2022/01/27 02:30:27;;;;;;;13.60;10.15;;;15.50;39.40;;;;;;4993212;28;20216;-71
2022/01/27 02:32:54;;;;;;;14.57;9.93;;;15.50;39.50;;;;;;4992794;28;20292;-73
2022/01/27 02:35:22;;;;;;;12.68;9.15;;;15.50;39.70;;;;;;4992690;28;20658;-71
2022/01/27 02:37:50;;;;;;;13.82;9.82;;;15.50;39.60;;;;;;4992887;28;20217;-69
2022/01/27 02:40:20;;;;;;;11.80;9.38;;;15.50;39.50;;;;;;4992839;28;20217;-70
2022/01/27 02:42:47;;;;;;;11.32;9.10;;;15.50;40.20;;;;;;4994014;28;20194;-70
2022/01/27 02:45:18;;;;;;;13.13;9.25;;;15.50;39.60;;;;;;4992698;28;20267;-71
2022/01/27 02:47:45;;;;;;;12.80;9.98;;;15.50;39.50;;;;;;4992594;28;20211;-73
2022/01/27 02:50:12;;;;;;;13.82;9.95;;;15.50;39.60;;;;;;4992533;28;20284;-72
2022/01/27 02:52:39;;;;;;;11.80;9.80;;;15.40;39.40;;;;;;4992425;28;20288;-71
2022/01/27 02:55:12;;;;;;;10.45;8.70;;;15.40;39.50;;;;;;4992367;28;20225;-73
2022/01/27 02:57:39;;;;;;;12.27;9.05;;;15.40;39.80;;;;;;4992952;28;20197;-70
2022/01/27 03:00:07;;;;;;;13.00;9.52;;;15.40;39.50;;;;;;4996582;28;20275;-73
2022/01/27 03:02:35;;;;;;;11.98;9.13;;;15.40;39.60;;;;;;4996560;28;20720;-71
2022/01/27 03:05:03;;;;;;;11.68;8.88;;;15.40;39.60;;;;;;4996205;28;20225;-71
2022/01/27 03:07:30;;;;;;;12.60;9.18;;;15.40;40.20;;;;;;4996183;28;20665;-69
2022/01/27 03:09:57;;;;;;;10.88;8.50;;;15.40;39.70;;;;;;4997597;28;20455;-73
2022/01/27 03:12:27;;;;;;;12.32;9.15;;;15.40;39.70;;;;;;4997511;28;20193;-71
2022/01/27 03:14:55;;;;;;;13.57;9.15;;;15.40;39.60;;;;;;4997522;28;20264;-71
2022/01/27 03:17:22;;;;;;;12.65;9.57;;;15.40;39.70;;;;;;4996490;28;20197;-72
2022/01/27 03:19:51;;;;;;;11.40;9.02;;;15.40;39.60;;;;;;4997861;28;20296;-72
2022/01/27 03:22:18;;;;;;;11.35;8.50;;;15.40;39.70;;;;;;4996263;28;20247;-73
2022/01/27 03:24:45;;;;;;;11.98;9.80;;;15.30;39.60;;;;;;4996118;28;20224;-71
2022/01/27 03:27:18;;;;;;;11.07;9.05;;;15.30;39.40;;;;;;4996392;28;20210;-71
2022/01/27 03:29:46;;;;;;;12.02;9.38;;;15.30;39.50;;;;;;4995965;28;20193;-70
2022/01/27 03:32:13;;;;;;;11.30;8.80;;;15.30;39.40;;;;;;4997150;28;20228;-70
2022/01/27 03:34:40;;;;;;;11.13;9.05;;;15.30;39.60;;;;;;4995652;28;20643;-73
2022/01/27 03:37:08;;;;;;;10.25;8.85;;;15.30;39.50;;;;;;5012134;28;20292;-73
2022/01/27 03:39:37;;;;;;;10.45;8.55;;;15.30;39.40;;;;;;4995724;28;20666;-69
2022/01/27 03:42:05;;;;;;;11.10;8.55;;;15.20;39.40;;;;;;4996919;28;20271;-71
2022/01/27 03:44:32;;;;;;;11.00;8.55;;;15.20;39.70;;;;;;4995946;28;20221;-73
2022/01/27 03:47:01;;;;;;;12.02;9.00;;;15.20;39.50;;;;;;4996642;28;20185;-71
2022/01/27 03:49:28;;;;;;;11.95;9.20;;;15.20;39.40;;;;;;4995692;28;20277;-73
2022/01/27 03:51:59;;;;;;;11.48;8.48;;;15.20;40.00;;;;;;4995930;28;20205;-71
2022/01/27 03:54:26;;;;;;;10.45;8.70;;;15.20;39.50;;;;;;4996708;28;20293;-71
2022/01/27 03:56:53;;;;;;;10.50;8.95;;;15.20;39.50;;;;;;5011848;28;20197;-72
2022/01/27 03:59:20;;;;;;;11.82;9.88;;;15.20;39.40;;;;;;4996446;28;20225;-71
2022/01/27 04:01:47;;;;;;;10.45;8.30;;;15.20;40.00;;;;;;5011637;28;20826;-69
2022/01/27 04:04:16;;;;;;;9.75;8.45;;;15.20;40.10;;;;;;4996511;28;20693;-73
2022/01/27 04:06:43;;;;;;;10.60;8.15;;;15.20;39.50;;;;;;4996617;28;20196;-73
2022/01/27 04:09:11;;;;;;;10.93;9.25;;;15.20;39.50;;;;;;4996213;28;20268;-71
2022/01/27 04:11:39;;;;;;;12.35;9.27;;;15.20;39.30;;;;;;4995270;28;20229;-69
2022/01/27 04:14:07;;;;;;;11.23;8.95;;;15.10;39.30;;;;;;4996270;28;20221;-69
2022/01/27 04:16:34;;;;;;;10.38;8.60;;;15.20;40.00;;;;;;4995237;28;20225;-72
2022/01/27 04:19:01;;;;;;;11.30;8.73;;;15.20;39.40;;;;;;4995490;28;20202;-72
2022/01/27 04:21:29;;;;;;;11.10;9.20;;;15.10;39.40;;;;;;4996238;28;20224;-72
2022/01/27 04:23:58;;;;;;;12.38;10.07;;;15.10;39.20;;;;;;4996153;28;20228;-73
2022/01/27 04:26:32;;;;;;;11.77;9.50;;;15.10;39.20;;;;;;4994883;28;20296;-72
2022/01/27 04:28:59;;;;;;;14.90;10.38;;;15.10;39.90;;;;;;4994922;28;20204;-71
2022/01/27 04:31:28;;;;;;;12.18;9.98;;;15.10;39.10;;;;;;4996131;28;20193;-73
2022/01/27 04:33:55;;;;;;;12.05;9.27;;;15.20;39.20;;;;;;4995980;28;20697;-73
2022/01/27 04:36:28;;;;;;;12.88;10.13;;;15.20;39.80;;;;;;4994692;28;20210;-70
2022/01/27 04:39:06;;;;;;;12.35;9.20;;;15.20;39.20;;;;;;4994613;28;20201;-71
2022/01/27 04:41:39;;;;;;;11.80;9.48;;;15.20;40.00;;;;;;4994771;28;20332;-72
2022/01/27 04:44:14;;;;;;;10.70;9.45;;;15.20;39.20;;;;;;4994656;28;20248;-71
2022/01/27 04:46:47;;;;;;;11.25;9.45;;;15.20;39.10;;;;;;4994922;28;20220;-73
2022/01/27 04:49:14;;;;;;;11.80;9.98;;;15.20;39.20;;;;;;4996007;28;20209;-71
2022/01/27 04:51:41;;;;;;;11.82;10.02;;;15.20;39.10;;;;;;4995299;28;20247;-73
2022/01/27 04:54:15;;;;;;;9.50;8.23;;;15.20;39.10;;;;;;4996153;28;20213;-73
2022/01/27 04:56:43;;;;;;;11.45;9.73;;;15.30;39.30;;;;;;4994893;28;20223;-71
2022/01/27 04:59:15;;;;;;;10.60;8.80;;;15.30;39.20;;;;;;4995222;28;20198;-71
2022/01/27 05:01:47;;;;;;;11.23;9.00;;;15.30;39.10;;;;;;5011640;28;20213;-71
2022/01/27 05:04:17;;;;;;;10.98;8.80;;;15.30;39.30;;;;;;4995155;28;20666;-73
2022/01/27 05:06:45;;;;;;;10.80;8.05;;;15.40;39.30;;;;;;4994648;28;20700;-71
2022/01/27 05:09:14;;;;;;;10.02;8.57;;;15.40;39.40;;;;;;4994951;28;20256;-72
2022/01/27 05:11:48;;;;;;;11.57;9.20;;;15.40;39.00;;;;;;4994456;28;20205;-69
2022/01/27 05:14:18;;;;;;;10.45;8.43;;;15.40;39.00;;;;;;4994363;28;20221;-71
2022/01/27 05:16:45;;;;;;;9.20;7.57;;;15.40;39.00;;;;;;4994479;28;20201;-71
2022/01/27 05:19:12;;;;;;;8.82;7.60;;;15.50;39.20;;;;;;4996142;28;20240;-71
2022/01/27 05:21:39;;;;;;;10.85;8.82;;;15.50;38.90;;;;;;4994148;28;20228;-73
2022/01/27 05:24:07;;;;;;;10.50;8.10;;;15.50;38.90;;;;;;4995515;28;20221;-71
2022/01/27 05:26:35;;;;;;;9.40;7.75;;;15.60;38.80;;;;;;4995857;28;20193;-70
2022/01/27 05:29:03;;;;;;;10.25;8.48;;;15.60;38.70;;;;;;4994716;28;20228;-71
2022/01/27 05:31:30;;;;;;;9.65;8.48;;;15.60;38.70;;;;;;4994180;28;20212;-73
2022/01/27 05:33:56;;;;;;;10.85;8.57;;;15.60;39.30;;;;;;4994473;28;20217;-73
2022/01/27 05:36:23;;;;;;;10.32;8.48;;;15.70;38.70;;;;;;4994613;28;20194;-69
2022/01/27 05:38:51;;;;;;;10.27;7.93;;;15.70;38.70;;;;;;5012285;28;20198;-73
2022/01/27 05:41:17;;;;;;;10.43;8.32;;;15.70;38.70;;;;;;5003380;28;20206;-72
2022/01/27 05:43:46;;;;;;;9.63;8.30;;;15.80;38.70;;;;;;4995903;28;20213;-69
2022/01/27 05:46:13;;;;;;;10.85;8.95;;;15.70;38.40;;;;;;4994872;28;20546;-70
2022/01/27 05:48:40;;;;;;;11.55;8.65;;;15.80;38.40;;;;;;4994007;28;20202;-73
2022/01/27 05:51:07;;;;;;;10.95;8.63;;;15.80;38.30;;;;;;4993878;28;20662;-71
2022/01/27 05:53:35;;;;;;;11.05;9.07;;;15.80;38.90;;;;;;4994989;28;20209;-71
2022/01/27 05:56:03;;;;;;;11.13;8.20;;;15.80;38.20;;;;;;4995067;28;20193;-72
2022/01/27 05:58:30;;;;;;;10.82;9.45;;;15.90;38.30;;;;;;4993624;28;20335;-71
2022/01/27 06:00:58;;;;;;;9.30;8.30;;;15.90;38.30;;;;;;4993617;28;20235;-71
2022/01/27 06:03:25;;;;;;;10.73;8.68;;;15.90;39.00;;;;;;4993695;28;20221;-69
2022/01/27 06:05:52;;;;;;;11.50;9.00;;;15.90;38.20;;;;;;4993871;28;20207;-71
2022/01/27 06:08:19;;;;;;;12.30;9.43;;;15.90;38.10;;;;;;4994378;28;20193;-72
2022/01/27 06:10:46;;;;;;;11.05;8.60;;;15.90;38.00;;;;;;4994196;28;20323;-71
2022/01/27 06:13:13;;;;;;;11.02;8.70;;;16.00;38.10;;;;;;4993353;28;20217;-70
2022/01/27 06:15:40;;;;;;;11.32;9.10;;;16.00;38.10;;;;;;4994308;28;20575;-72
2022/01/27 06:18:09;;;;;;;11.77;9.95;;;16.00;38.10;;;;;;4993041;28;20193;-71
2022/01/27 06:20:37;;;;;;;11.68;9.45;;;16.10;38.20;;;;;;4992823;28;20241;-69
2022/01/27 06:23:04;;;;;;;10.38;9.02;;;16.10;38.20;;;;;;4992998;28;20655;-69
2022/01/27 06:25:32;;;;;;;12.00;9.52;;;16.10;38.70;;;;;;4992980;28;20271;-71
2022/01/27 06:27:59;;;;;;;11.07;9.65;;;16.10;38.20;;;;;;4992944;28;20580;-70
2022/01/27 06:30:27;;;;;;;11.05;9.30;;;16.10;38.20;;;;;;4992552;28;20501;-71
2022/01/27 06:32:54;;;;;;;12.00;9.85;;;16.10;38.20;;;;;;4992045;28;20227;-71
2022/01/27 06:35:22;;;;;;;10.63;9.30;;;16.10;38.00;;;;;;4992539;28;20207;-70
2022/01/27 06:37:50;;;;;;;11.18;9.63;;;16.20;38.00;;;;;;4992816;28;20205;-72
2022/01/27 06:40:17;;;;;;;10.88;8.40;;;16.20;38.10;;;;;;4992536;28;20653;-70
2022/01/27 06:42:45;;;;;;;10.73;8.80;;;16.20;38.00;;;;;;4992670;28;20207;-71
2022/01/27 06:45:12;;;;;;;11.07;9.48;;;16.20;37.80;;;;;;4993768;28;20209;-71
2022/01/27 06:47:39;;;;;;;12.27;10.45;;;16.20;38.00;;;;;;4993916;28;20264;-70
2022/01/27 06:50:07;;;;;;;10.30;8.52;;;16.30;38.00;;;;;;4994213;28;20213;-69
2022/01/27 06:52:35;;;;;;;11.68;9.98;;;16.20;38.00;;;;;;5009233;28;20205;-72
2022/01/27 06:55:04;;;;;;;10.48;9.35;;;16.30;38.30;;;;;;4992457;28;20221;-70
2022/01/27 06:57:33;;;;;;;12.63;10.30;;;16.20;38.20;;;;;;4992404;28;20255;-70
2022/01/27 07:00:00;;;;;;;11.13;9.20;;;16.20;38.10;;;;;;4992968;28;20284;-67
2022/01/27 07:02:27;;;;;;;11.93;9.75;;;16.20;38.20;;;;;;4992234;28;20228;-71
2022/01/27 07:04:55;;;;;;;9.63;8.43;;;16.30;38.30;;;;;;5008466;28;20328;-70
2022/01/27 07:07:22;;;;;;;10.63;9.55;;;16.20;38.10;;;;;;4992289;28;20225;-69
2022/01/27 07:09:50;;;;;;;10.00;8.98;;;16.20;38.00;;;;;;4992124;28;20202;-69
2022/01/27 07:12:17;;;;;;;10.57;9.48;;;16.20;38.00;;;;;;4992308;28;20252;-71
2022/01/27 07:14:44;;;;;;;9.52;8.40;;;16.20;38.00;;;;;;4992082;28;20225;-69
2022/01/27 07:17:13;;;;;;;10.80;9.48;;;16.20;37.90;;;;;;4992235;28;20227;-68
2022/01/27 07:19:40;;;;;;;10.00;9.00;;;16.20;38.10;;;;;;4992105;28;20203;-71
2022/01/27 07:22:07;;;;;;;10.65;8.65;;;16.30;38.20;;;;;;4992897;28;20225;-69
2022/01/27 07:24:34;;;;;;;9.52;8.10;;;16.30;37.80;;;;;;4992356;28;20221;-69
2022/01/27 07:27:03;;;;;;;10.55;8.90;;;16.30;37.80;;;;;;5008513;28;20208;-67
2022/01/27 07:29:30;;;;;;;10.05;8.98;;;16.30;37.70;;;;;;4993622;28;20681;-68
2022/01/27 07:31:57;;;;;;;9.35;8.18;;;16.30;37.50;;;;;;4992441;28;20208;-71
2022/01/27 07:34:24;;;;;;;9.13;7.95;;;16.30;37.60;;;;;;4993638;28;20206;-69
2022/01/27 07:36:55;;;;;;;8.60;7.70;;;16.30;37.50;;;;;;4992332;28;20213;-69
2022/01/27 07:39:22;;;;;;;8.95;7.45;;;16.40;37.60;;;;;;4992413;28;20296;-67
2022/01/27 07:41:50;;;;;;;10.48;9.18;;;16.40;37.40;;;;;;4993339;28;20288;-70
2022/01/27 07:44:22;;;;;;;8.05;7.25;;;16.40;37.30;;;;;;4993971;28;20267;-71
2022/01/27 07:46:49;;;;;;;8.48;7.57;;;16.40;37.30;;;;;;4997215;28;20198;-69
2022/01/27 07:49:16;;;;;;;10.68;8.95;;;16.40;37.30;;;;;;4997510;28;20670;-68
2022/01/27 07:51:43;;;;;;;9.10;8.20;;;16.40;37.20;;;;;;4996456;28;20205;-70
2022/01/27 07:54:11;;;;;;;9.75;8.02;;;16.40;37.20;;;;;;4996742;28;20541;-71
2022/01/27 07:56:38;;;;;;;9.18;8.10;;;16.40;37.00;;;;;;4995888;28;20201;-69
2022/01/27 07:59:05;;;;;;;7.95;7.15;;;16.40;37.00;;;;;;4995679;28;20297;-67
2022/01/27 08:01:34;;;;;;;9.75;8.75;;;16.40;37.20;;;;;;4995411;28;20218;-70
2022/01/27 08:04:01;;;;;;;10.85;8.75;;;16.40;37.10;;;;;;4995379;28;20317;-70
2022/01/27 08:06:28;;;;;;;9.63;8.38;;;16.40;36.90;;;;;;4996932;28;20240;-71
2022/01/27 08:08:56;;;;;;;11.13;9.20;;;16.40;37.10;;;;;;4995374;28;20205;-67
2022/01/27 08:11:23;;;;;;;11.90;9.95;;;16.40;36.90;;;;;;4995298;28;20193;-67
2022/01/27 08:13:50;;;;;;;15.50;10.68;;;16.40;36.80;;;;;;4995116;28;20229;-70
2022/01/27 08:16:17;;;;;;;10.82;9.35;;;16.40;36.60;;;;;;4995129;28;20280;-68
2022/01/27 08:18:45;;;;;;;10.65;8.38;;;16.50;36.90;;;;;;4996298;28;20289;-68
2022/01/27 08:21:12;;;;;;;13.40;9.48;;;16.40;36.90;;;;;;4996203;28;20300;-70
2022/01/27 08:23:42;;;;;;;12.32;9.95;;;16.50;36.90;;;;;;4996368;28;20697;-70
2022/01/27 08:26:12;;;;;;;11.15;9.70;;;16.50;36.50;;;;;;4994822;28;20247;-68
2022/01/27 08:28:44;;;;;;;10.88;9.40;;;16.50;36.50;;;;;;4994842;28;20284;-69
2022/01/27 08:31:12;;;;;;;11.30;9.00;;;16.50;36.60;;;;;;4996213;28;20232;-71
2022/01/27 08:33:40;;;;;;;10.55;9.13;;;16.40;36.80;;;;;;4994814;28;20217;-69
2022/01/27 08:36:08;;;;;;;10.40;8.77;;;16.50;36.70;;;;;;4996096;28;20194;-69
2022/01/27 08:38:41;;;;;;;10.75;9.00;;;16.50;36.70;;;;;;4994954;28;20205;-70
2022/01/27 08:41:08;;;;;;;10.10;8.50;;;16.50;37.30;;;;;;5010897;28;20221;-67
2022/01/27 08:43:35;;;;;;;10.32;9.13;;;16.50;36.70;;;;;;4996012;28;20369;-68
2022/01/27 08:46:02;;;;;;;11.40;9.18;;;16.50;36.30;;;;;;4995926;28;20633;-69
2022/01/27 08:48:29;;;;;;;10.50;8.65;;;16.50;36.50;;;;;;5010799;28;20233;-68
2022/01/27 08:51:00;;;;;;;10.85;8.57;;;16.50;36.50;;;;;;4994459;28;20197;-71
2022/01/27 08:53:30;;;;;;;11.32;9.05;;;16.50;36.70;;;;;;4994556;28;20636;-71
2022/01/27 08:55:57;;;;;;;11.27;8.75;;;16.50;36.40;;;;;;4993629;28;20204;-70
2022/01/27 08:58:25;;;;;;;12.25;8.70;;;16.50;36.70;;;;;;4995776;28;20196;-70
2022/01/27 09:00:53;;;;;;;13.00;9.43;;;16.50;36.50;;;;;;4994355;28;20224;-70
2022/01/27 09:03:20;;;;;;;13.18;9.68;;;16.60;36.50;;;;;;4995609;28;20224;-67
2022/01/27 09:05:47;;;;;;;11.57;9.73;;;16.60;36.60;;;;;;4995589;28;20190;-69
2022/01/27 09:08:14;;;;;;;11.48;9.50;;;16.60;36.40;;;;;;4994474;28;20300;-69
2022/01/27 09:10:46;;;;;;;14.40;11.05;;;16.60;37.00;;;;;;4994490;28;20740;-70
2022/01/27 09:13:14;;;;;;;10.15;8.70;;;16.60;36.30;;;;;;4996325;28;20700;-67
2022/01/27 09:15:42;;;;;;;12.55;9.52;;;16.60;36.30;;;;;;4994504;28;20290;-68
2022/01/27 09:18:10;;;;;;;12.10;9.32;;;16.60;36.30;;;;;;4994709;28;20577;-69
2022/01/27 09:20:37;;;;;;;12.30;10.10;;;16.60;36.90;;;;;;4995773;28;20205;-70
2022/01/27 09:23:12;;;;;;;10.77;9.13;;;16.60;36.30;;;;;;4993945;28;20243;-68
2022/01/27 09:25:42;;;;;;;11.32;9.40;;;16.60;36.30;;;;;;4993854;28;20193;-70
2022/01/27 09:28:11;;;;;;;10.90;9.50;;;16.60;36.30;;;;;;4993908;28;20205;-70
2022/01/27 09:30:39;;;;;;;11.10;9.07;;;16.70;36.90;;;;;;4994043;28;20217;-70
2022/01/27 09:33:06;;;;;;;12.02;9.75;;;16.80;36.40;;;;;;4993984;28;20202;-67
2022/01/27 09:35:33;;;;;;;12.80;9.48;;;16.80;36.10;;;;;;4993868;28;20198;-70
2022/01/27 09:38:00;;;;;;;9.55;8.00;;;16.80;36.00;;;;;;4994116;28;20623;-71
2022/01/27 09:40:28;;;;;;;9.75;8.25;;;16.80;36.10;;;;;;4993654;28;20201;-69
2022/01/27 09:42:56;;;;;;;11.27;9.07;;;16.80;35.80;;;;;;4993284;28;20221;-68
2022/01/27 09:45:24;;;;;;;9.52;8.27;;;16.90;35.90;;;;;;4993526;28;20212;-70
2022/01/27 09:47:57;;;;;;;11.30;9.30;;;16.90;35.90;;;;;;4993560;28;20613;-70
2022/01/27 09:50:36;;;;;;;10.45;8.77;;;16.80;35.80;;;;;;4993184;28;20292;-70
2022/01/27 09:53:03;;;;;;;10.50;8.40;;;16.90;36.20;;;;;;4993410;28;20225;-70
2022/01/27 09:55:30;;;;;;;8.93;7.75;;;16.80;36.00;;;;;;4993050;28;20670;-69
2022/01/27 09:57:58;;;;;;;9.27;8.02;;;16.90;36.00;;;;;;4994377;28;20189;-69
2022/01/27 10:00:27;;;;;;;10.45;8.52;;;16.90;36.10;;;;;;4993175;28;20232;-70
2022/01/27 10:03:04;;;;;;;10.38;8.40;;;16.90;35.80;;;;;;4993042;28;20220;-69
2022/01/27 10:05:32;;;;;;;9.80;7.88;;;16.90;35.80;;;;;;4993166;28;20198;-67
2022/01/27 10:08:03;;;;;;;9.90;8.45;;;16.90;35.90;;;;;;4992873;28;20273;-70
2022/01/27 10:10:36;;;;;;;9.27;7.85;;;16.90;36.00;;;;;;4994326;28;20186;-67
2022/01/27 10:13:05;;;;;;;9.85;8.15;;;16.90;36.10;;;;;;4993053;28;20221;-68
2022/01/27 10:15:36;;;;;;;9.60;8.23;;;16.90;36.00;;;;;;4993250;28;20205;-68
2022/01/27 10:18:05;;;;;;;8.52;7.57;;;16.90;35.80;;;;;;4993226;28;20644;-68
2022/01/27 10:20:32;;;;;;;9.50;8.48;;;16.90;35.90;;;;;;4993074;28;20271;-67
2022/01/27 10:23:11;;;;;;;9.57;8.07;;;16.90;35.90;;;;;;4992902;28;20228;-70
2022/01/27 10:25:46;;;;;;;8.50;7.55;;;17.00;35.80;;;;;;4992724;28;20201;-68
2022/01/27 10:28:30;;;;;;;8.60;7.75;;;16.90;36.10;;;;;;4993240;28;20259;-71
2022/01/27 10:31:02;;;;;;;9.48;7.55;;;17.00;35.90;;;;;;4993043;28;20303;-69
2022/01/27 10:33:42;;;;;;;8.45;7.57;;;17.00;36.00;;;;;;4994480;28;20589;-68
2022/01/27 10:36:20;;;;;;;9.65;7.30;;;17.00;36.00;;;;;;4993433;28;20227;-70
2022/01/27 10:38:47;;;;;;;9.10;7.47;;;17.00;35.90;;;;;;4995193;28;20188;-68
2022/01/27 10:41:14;;;;;;;7.72;6.93;;;17.00;35.80;;;;;;4993190;28;20201;-70
2022/01/27 10:43:41;;;;;;;10.27;7.88;;;17.00;36.00;;;;;;4993040;28;20217;-70
2022/01/27 10:46:14;;;;;;;11.68;8.38;;;17.00;35.70;;;;;;4995139;28;20193;-70
2022/01/27 10:48:44;;;;;;;9.10;7.90;;;17.00;35.70;;;;;;4993522;28;20201;-71
2022/01/27 10:51:18;;;;;;;9.07;7.80;;;17.00;35.80;;;;;;4993177;28;20186;-68
2022/01/27 10:53:54;;;;;;;8.93;7.72;;;17.00;35.70;;;;;;4992751;28;20217;-69
2022/01/27 10:56:23;;;;;;;10.70;8.48;;;17.10;35.80;;;;;;4992920;28;20653;-69
2022/01/27 10:58:50;;;;;;;7.97;7.07;;;17.10;35.60;;;;;;4994193;28;20624;-67
2022/01/27 11:01:32;;;;;;;8.18;7.13;;;17.10;35.90;;;;;;4992581;28;20197;-69
2022/01/27 11:04:01;;;;;;;9.35;7.47;;;17.10;36.40;;;;;;4992621;28;20304;-68
2022/01/27 11:06:30;;;;;;;8.20;7.25;;;17.10;36.00;;;;;;4992839;28;20288;-70
2022/01/27 11:09:00;;;;;;;9.57;7.70;;;17.10;35.80;;;;;;4992766;28;20212;-69
2022/01/27 11:11:27;;;;;;;10.00;7.85;;;17.10;35.70;;;;;;4992550;28;20197;-69
2022/01/27 11:13:55;;;;;;;8.18;7.00;;;17.10;35.60;;;;;;4992757;28;20288;-68
2022/01/27 11:16:28;;;;;;;8.95;8.05;;;17.20;35.80;;;;;;4992716;28;20317;-69
2022/01/27 11:19:11;;;;;;;9.60;8.32;;;17.20;35.60;;;;;;4993423;28;20201;-68
2022/01/27 11:21:40;;;;;;;8.95;7.82;;;17.20;35.60;;;;;;4996475;28;20650;-69
2022/01/27 11:24:15;;;;;;;8.18;7.35;;;17.20;35.70;;;;;;4996129;28;20229;-68
2022/01/27 11:26:43;;;;;;;9.13;7.35;;;17.20;35.70;;;;;;4996343;28;20219;-69
2022/01/27 11:29:10;;;;;;;8.38;7.57;;;17.20;35.80;;;;;;4997372;28;20185;-68
2022/01/27 11:31:58;;;;;;;8.98;7.30;;;17.20;35.70;;;;;;4997541;28;20224;-69
2022/01/27 11:34:42;;;;;;;8.43;7.28;;;17.20;35.80;;;;;;4997598;28;20218;-70
2022/01/27 11:37:09;;;;;;;7.88;7.00;;;17.20;35.50;;;;;;5012976;28;20277;-71
2022/01/27 11:39:52;;;;;;;7.68;6.57;;;17.20;35.60;;;;;;4996498;28;20563;-68
2022/01/27 11:42:39;;;;;;;7.82;7.03;;;17.20;35.80;;;;;;4998150;28;20228;-70
2022/01/27 11:45:31;;;;;;;7.70;6.90;;;17.20;35.60;;;;;;4997438;28;20240;-70
2022/01/27 11:48:01;;;;;;;7.63;6.88;;;17.20;35.80;;;;;;5012730;28;20631;-68
2022/01/27 11:50:33;;;;;;;8.18;7.38;;;17.20;35.60;;;;;;4996386;28;20197;-70
2022/01/27 11:53:02;;;;;;;8.25;6.72;;;17.20;35.70;;;;;;4996243;28;20204;-71
2022/01/27 11:55:46;;;;;;;7.88;7.07;;;17.20;35.60;;;;;;4996213;28;20236;-70
2022/01/27 11:58:17;;;;;;;7.97;7.18;;;17.20;35.70;;;;;;4996330;28;20192;-70
2022/01/27 12:01:06;;;;;;;8.48;7.10;;;17.20;35.80;;;;;;4996539;28;20225;-70
2022/01/27 12:03:33;;;;;;;7.70;6.90;;;17.20;35.50;;;;;;4997626;28;20229;-71
2022/01/27 12:06:16;;;;;;;7.70;6.90;;;17.20;35.60;;;;;;4997100;28;20189;-68
2022/01/27 12:08:43;;;;;;;7.38;6.68;;;17.20;35.40;;;;;;4997116;28;20201;-69
2022/01/27 12:11:12;;;;;;;8.18;7.35;;;17.20;35.50;;;;;;4996200;28;20198;-70
2022/01/27 12:13:56;;;;;;;8.55;7.63;;;17.30;35.80;;;;;;4995844;28;20240;-70
2022/01/27 12:16:37;;;;;;;8.38;6.57;;;17.20;35.60;;;;;;4996013;28;20193;-69
2022/01/27 12:19:06;;;;;;;9.45;7.55;;;17.20;35.90;;;;;;4995598;28;20197;-70
2022/01/27 12:21:36;;;;;;;7.63;6.82;;;17.30;35.70;;;;;;4995935;28;20700;-70
2022/01/27 12:24:22;;;;;;;8.05;7.13;;;17.20;35.60;;;;;;4996990;28;20228;-70
2022/01/27 12:26:50;;;;;;;7.45;6.68;;;17.30;35.40;;;;;;4995812;28;20646;-68
2022/01/27 12:29:25;;;;;;;6.97;6.32;;;17.30;35.70;;;;;;4995812;28;20260;-69
2022/01/27 12:31:52;;;;;;;7.93;7.13;;;17.30;35.60;;;;;;4994067;28;20201;-69
2022/01/27 12:34:19;;;;;;;7.55;6.75;;;17.30;35.70;;;;;;4995797;28;20298;-70
2022/01/27 12:36:56;;;;;;;7.38;6.57;;;17.40;35.60;;;;;;4995493;28;20665;-71
2022/01/27 12:39:25;;;;;;;8.10;6.93;;;17.40;35.40;;;;;;4995804;28;20193;-68
2022/01/27 12:41:53;;;;;;;7.40;6.65;;;17.40;35.50;;;;;;4996734;28;20225;-69
2022/01/27 12:44:20;;;;;;;6.85;6.18;;;17.40;35.50;;;;;;4995351;28;20216;-71
2022/01/27 12:47:19;;;;;;;8.02;7.22;;;17.40;35.50;;;;;;4995208;28;20252;-69
2022/01/27 12:49:47;;;;;;;7.75;6.95;;;17.40;35.90;;;;;;4996500;28;20182;-70
2022/01/27 12:52:18;;;;;;;7.40;6.55;;;17.50;35.30;;;;;;4995987;28;20196;-69
2022/01/27 12:54:47;;;;;;;7.18;6.47;;;17.40;35.20;;;;;;4996016;28;20736;-69
2022/01/27 12:57:14;;;;;;;8.05;7.00;;;17.40;35.30;;;;;;4994654;28;20209;-70
2022/01/27 12:59:43;;;;;;;7.82;7.00;;;17.50;35.40;;;;;;4994946;28;20201;-68
2022/01/27 13:02:11;;;;;;;7.22;6.53;;;17.50;35.00;;;;;;4994339;28;20300;-69
2022/01/27 13:04:39;;;;;;;7.15;6.43;;;17.50;36.00;;;;;;4994468;28;20221;-71
2022/01/27 13:07:07;;;;;;;6.60;6.00;;;17.50;35.40;;;;;;4995791;28;20209;-71